createdAt,value
2022-12-04T00:01:14.028Z,32.63
2022-12-04T00:03:41.182Z,31.58
2022-12-04T00:06:14.775Z,32.50
2022-12-04T00:08:45.383Z,32.95
2022-12-04T00:11:14.071Z,33.10
2022-12-04T00:13:41.649Z,31.83
2022-12-04T00:16:12.693Z,31.88
2022-12-04T00:18:39.495Z,31.75
2022-12-04T00:21:07.861Z,31.35
2022-12-04T00:23:36.762Z,32.35
2022-12-04T00:26:06.085Z,32.70
2022-12-04T00:28:33.846Z,32.67
2022-12-04T00:31:08.088Z,31.92
2022-12-04T00:33:35.937Z,32.85
2022-12-04T00:36:06.247Z,32.88
2022-12-04T00:38:33.418Z,33.30
2022-12-04T00:41:02.854Z,32.72
2022-12-04T00:43:31.420Z,33.50
2022-12-04T00:45:58.291Z,32.47
2022-12-04T00:48:25.717Z,33.30
2022-12-04T00:50:54.233Z,33.63
2022-12-04T00:53:21.793Z,32.67
2022-12-04T00:55:48.465Z,32.88
2022-12-04T00:58:15.313Z,32.42
2022-12-04T01:00:43.051Z,32.83
2022-12-04T01:03:10.133Z,32.85
2022-12-04T01:05:45.674Z,33.85
2022-12-04T01:08:12.945Z,32.88
2022-12-04T01:10:41.697Z,33.15
2022-12-04T01:13:08.927Z,33.15
2022-12-04T01:15:39.753Z,32.92
2022-12-04T01:18:10.868Z,33.58
2022-12-04T01:20:37.709Z,33.70
2022-12-04T01:23:06.755Z,33.03
2022-12-04T01:25:34.142Z,34.28
2022-12-04T01:28:03.477Z,32.72
2022-12-04T01:30:30.291Z,34.05
2022-12-04T01:32:57.066Z,33.13
2022-12-04T01:35:24.009Z,34.05
2022-12-04T01:37:50.871Z,34.65
2022-12-04T01:40:17.629Z,33.70
2022-12-04T01:42:44.607Z,33.05
2022-12-04T01:45:33.171Z,34.50
2022-12-04T01:48:11.038Z,33.58
2022-12-04T01:50:38.239Z,34.42
2022-12-04T01:53:05.098Z,33.03
2022-12-04T01:55:32.252Z,35.10
2022-12-04T01:58:01.890Z,34.17
2022-12-04T02:00:36.234Z,33.97
2022-12-04T02:03:03.087Z,34.15
2022-12-04T02:05:29.982Z,33.03
2022-12-04T02:08:00.355Z,34.47
2022-12-04T02:10:56.766Z,34.38
2022-12-04T02:13:38.386Z,33.65
2022-12-04T02:16:25.363Z,34.47
2022-12-04T02:21:35.412Z,34.22
2022-12-04T02:24:02.074Z,33.47
2022-12-04T02:26:41.131Z,33.83
2022-12-04T02:29:10.975Z,34.15
2022-12-04T02:31:51.209Z,33.03
2022-12-04T02:34:29.650Z,33.83
2022-12-04T02:37:03.027Z,33.65
2022-12-04T02:39:39.515Z,34.53
2022-12-04T02:44:50.746Z,34.63
2022-12-04T02:47:21.608Z,34.28
2022-12-04T02:50:04.902Z,34.53
2022-12-04T02:52:36.693Z,32.45
2022-12-04T02:55:11.133Z,34.85
2022-12-04T02:57:43.371Z,33.47
2022-12-04T03:00:11.080Z,33.80
2022-12-04T03:02:59.530Z,34.40
2022-12-04T03:05:53.202Z,34.08
2022-12-04T03:08:25.435Z,33.88
2022-12-04T03:10:57.910Z,35.08
2022-12-04T03:13:36.349Z,35.13
2022-12-04T03:16:47.644Z,33.97
2022-12-04T03:19:20.045Z,33.40
2022-12-04T03:21:54.277Z,33.50
2022-12-04T03:24:33.741Z,33.70
2022-12-04T03:27:12.790Z,34.70
2022-12-04T03:29:44.837Z,34.10
2022-12-04T03:32:13.259Z,33.80
2022-12-04T03:35:07.954Z,33.75
2022-12-04T03:37:41.288Z,33.78
2022-12-04T03:40:26.018Z,32.25
2022-12-04T03:43:03.861Z,33.35
2022-12-04T03:45:52.098Z,34.25
2022-12-04T03:48:31.956Z,33.63
2022-12-04T03:51:19.306Z,34.10
2022-12-04T03:53:52.617Z,34.53
2022-12-04T03:56:24.095Z,34.25
2022-12-04T03:58:56.779Z,34.22
2022-12-04T04:01:30.358Z,33.30
2022-12-04T04:03:58.652Z,33.22
2022-12-04T04:06:30.871Z,33.88
2022-12-04T04:09:02.354Z,33.40
2022-12-04T04:11:32.744Z,33.97
2022-12-04T04:14:27.478Z,34.78
2022-12-04T04:17:34.927Z,32.17
2022-12-04T04:20:27.495Z,33.28
2022-12-04T04:23:16.835Z,32.88
2022-12-04T04:25:45.651Z,33.63
2022-12-04T04:28:35.388Z,33.13
2022-12-04T04:31:05.110Z,34.03
2022-12-04T04:33:36.084Z,33.60
2022-12-04T04:36:18.715Z,33.90
2022-12-04T04:39:09.626Z,33.35
2022-12-04T04:41:44.232Z,33.13
2022-12-04T04:44:45.029Z,33.80
2022-12-04T04:47:27.539Z,34.35
2022-12-04T04:49:56.705Z,33.03
2022-12-04T04:52:24.949Z,33.63
2022-12-04T04:54:51.573Z,33.35
2022-12-04T04:57:29.658Z,31.30
2022-12-04T04:59:56.668Z,33.08
2022-12-04T05:02:26.502Z,33.38
2022-12-04T05:04:54.072Z,33.63
2022-12-04T05:07:20.682Z,33.97
2022-12-04T05:09:47.218Z,33.00
2022-12-04T05:12:13.776Z,33.88
2022-12-04T05:14:40.588Z,34.30
2022-12-04T05:17:12.354Z,32.72
2022-12-04T05:19:55.258Z,34.75
2022-12-04T05:22:24.167Z,34.58
2022-12-04T05:24:50.865Z,33.15
2022-12-04T05:27:17.789Z,35.15
2022-12-04T05:29:44.722Z,33.13
2022-12-04T05:32:11.450Z,34.33
2022-12-04T05:34:38.287Z,34.38
2022-12-04T05:37:04.956Z,34.10
2022-12-04T05:39:35.067Z,33.72
2022-12-04T05:42:01.642Z,34.88
2022-12-04T05:44:28.451Z,33.80
2022-12-04T05:46:55.297Z,33.72
2022-12-04T05:49:21.967Z,35.55
2022-12-04T05:51:50.431Z,35.30
2022-12-04T05:54:18.062Z,34.40
2022-12-04T05:56:45.446Z,34.72
2022-12-04T05:59:12.013Z,34.67
2022-12-04T06:01:39.140Z,34.65
2022-12-04T06:04:06.027Z,34.40
2022-12-04T06:06:32.884Z,34.15
2022-12-04T06:09:00.390Z,33.95
2022-12-04T06:11:32.453Z,34.50
2022-12-04T06:14:01.104Z,34.90
2022-12-04T06:16:30.961Z,34.72
2022-12-04T06:19:00.879Z,35.38
2022-12-04T06:21:30.030Z,35.40
2022-12-04T06:23:56.770Z,37.10
2022-12-04T06:26:24.081Z,35.42
2022-12-04T06:28:56.880Z,34.22
2022-12-04T06:31:25.606Z,36.17
2022-12-04T06:33:54.613Z,34.28
2022-12-04T06:36:22.098Z,34.40
2022-12-04T06:38:50.419Z,35.35
2022-12-04T06:41:19.664Z,35.60
2022-12-04T06:43:46.663Z,35.30
2022-12-04T06:46:16.847Z,35.90
2022-12-04T06:48:43.613Z,35.92
2022-12-04T06:51:12.835Z,35.85
2022-12-04T06:53:40.265Z,33.72
2022-12-04T06:56:10.375Z,36.90
2022-12-04T06:58:39.824Z,38.35
2022-12-04T07:01:08.984Z,39.28
2022-12-04T07:03:36.488Z,37.75
2022-12-04T07:06:15.573Z,37.83
2022-12-04T07:08:43.631Z,39.22
2022-12-04T07:11:11.225Z,38.42
2022-12-04T07:13:38.565Z,38.42
2022-12-04T07:16:07.109Z,39.80
2022-12-04T07:18:34.545Z,39.80
2022-12-04T07:21:08.381Z,38.67
2022-12-04T07:23:35.793Z,39.65
2022-12-04T07:26:11.699Z,39.00
2022-12-04T07:28:39.586Z,41.67
2022-12-04T07:31:08.765Z,40.67
2022-12-04T07:33:35.952Z,39.92
2022-12-04T07:36:09.169Z,40.35
2022-12-04T07:38:36.165Z,38.92
2022-12-04T07:41:05.050Z,39.33
2022-12-04T07:43:33.091Z,40.25
2022-12-04T07:46:08.375Z,39.55
2022-12-04T07:48:37.276Z,41.45
2022-12-04T07:51:05.864Z,40.65
2022-12-04T07:53:34.097Z,40.25
2022-12-04T07:56:01.052Z,39.20
2022-12-04T07:58:27.748Z,40.00
2022-12-04T08:00:54.371Z,40.13
2022-12-04T08:03:21.169Z,40.30
2022-12-04T08:05:48.102Z,41.22
2022-12-04T08:08:14.765Z,39.75
2022-12-04T08:10:41.442Z,39.45
2022-12-04T08:13:08.683Z,39.80
2022-12-04T08:15:35.734Z,40.60
2022-12-04T08:18:03.353Z,42.03
2022-12-04T08:20:30.071Z,40.20
2022-12-04T08:22:56.894Z,40.13
2022-12-04T08:25:23.909Z,40.17
2022-12-04T08:27:50.754Z,40.00
2022-12-04T08:30:17.543Z,39.53
2022-12-04T08:32:44.474Z,40.80
2022-12-04T08:35:11.676Z,39.53
2022-12-04T08:37:38.444Z,39.35
2022-12-04T08:40:06.268Z,39.08
2022-12-04T08:42:33.109Z,39.88
2022-12-04T08:44:59.883Z,40.28
2022-12-04T08:47:26.526Z,39.85
2022-12-04T08:49:53.310Z,39.75
2022-12-04T08:52:20.221Z,39.70
2022-12-04T08:54:47.166Z,40.58
2022-12-04T08:57:13.776Z,40.08
2022-12-04T08:59:40.444Z,38.80
2022-12-04T09:02:07.172Z,38.88
2022-12-04T09:04:34.736Z,40.05
2022-12-04T09:07:01.456Z,38.63
2022-12-04T09:09:28.054Z,38.08
2022-12-04T09:11:54.947Z,39.65
2022-12-04T09:14:25.730Z,39.10
2022-12-04T09:16:53.729Z,38.55
2022-12-04T09:19:21.128Z,39.78
2022-12-04T09:21:47.870Z,39.20
2022-12-04T09:24:15.336Z,40.20
2022-12-04T09:26:42.170Z,40.10
2022-12-04T09:29:10.825Z,38.28
2022-12-04T09:31:37.523Z,38.17
2022-12-04T09:34:04.513Z,39.72
2022-12-04T09:36:31.085Z,38.47
2022-12-04T09:38:58.292Z,39.15
2022-12-04T09:41:36.965Z,38.85
2022-12-04T09:44:03.540Z,38.42
2022-12-04T09:46:39.548Z,37.85
2022-12-04T09:49:27.988Z,37.55
2022-12-04T09:51:59.427Z,38.67
2022-12-04T09:54:39.223Z,37.25
2022-12-04T09:57:31.341Z,37.08
2022-12-04T09:59:58.984Z,38.28
2022-12-04T10:02:37.081Z,38.55
2022-12-04T10:05:05.163Z,37.80
2022-12-04T10:07:34.194Z,37.15
2022-12-04T10:10:15.333Z,36.13
2022-12-04T10:12:51.998Z,37.38
2022-12-04T10:15:47.792Z,37.25
2022-12-04T10:18:45.817Z,36.92
2022-12-04T10:21:31.341Z,37.90
2022-12-04T10:24:29.658Z,36.55
2022-12-04T10:26:59.863Z,36.67
2022-12-04T10:29:31.288Z,35.75
2022-12-04T10:32:12.882Z,36.20
2022-12-04T10:34:44.102Z,36.15
2022-12-04T10:37:14.374Z,36.95
2022-12-04T10:40:22.443Z,36.35
2022-12-04T10:45:15.562Z,36.60
2022-12-04T10:47:46.289Z,35.70
2022-12-04T10:50:16.102Z,36.40
2022-12-04T10:52:43.021Z,36.38
2022-12-04T10:55:10.024Z,36.55
2022-12-04T10:57:46.649Z,37.22
2022-12-04T11:00:26.132Z,36.42
2022-12-04T11:02:55.308Z,35.67
2022-12-04T11:05:29.029Z,36.67
2022-12-04T11:07:57.366Z,36.60
2022-12-04T11:10:41.730Z,37.88
2022-12-04T11:13:11.319Z,35.85
2022-12-04T11:15:45.486Z,38.45
2022-12-04T11:18:28.166Z,37.70
2022-12-04T11:21:02.855Z,35.88
2022-12-04T11:23:45.050Z,36.85
2022-12-04T11:26:12.713Z,35.58
2022-12-04T11:28:44.879Z,36.83
2022-12-04T11:31:18.443Z,35.88
2022-12-04T11:33:46.737Z,36.80
2022-12-04T11:36:19.519Z,36.00
2022-12-04T11:38:48.935Z,34.67
2022-12-04T11:41:30.696Z,35.20
2022-12-04T11:44:01.090Z,35.05
2022-12-04T11:46:34.657Z,35.03
2022-12-04T11:49:03.382Z,36.58
2022-12-04T11:52:00.914Z,35.45
2022-12-04T11:54:46.337Z,34.15
2022-12-04T11:57:31.603Z,33.65
2022-12-04T12:00:16.988Z,33.35
2022-12-04T12:03:01.698Z,34.40
2022-12-04T12:06:02.430Z,33.38
2022-12-04T12:08:38.317Z,33.03
2022-12-04T12:11:08.119Z,34.13
2022-12-04T12:14:10.081Z,33.53
2022-12-04T12:16:58.191Z,31.58
2022-12-04T12:19:42.711Z,33.38
2022-12-04T12:22:30.610Z,33.40
2022-12-04T12:25:03.356Z,34.03
2022-12-04T12:27:48.224Z,33.28
2022-12-04T12:30:19.219Z,32.60
2022-12-04T12:32:55.070Z,32.63
2022-12-04T12:35:28.597Z,33.00
2022-12-04T12:38:18.226Z,33.15
2022-12-04T12:40:44.827Z,32.80
2022-12-04T12:43:26.623Z,32.78
2022-12-04T12:46:25.083Z,31.80
2022-12-04T12:49:45.002Z,31.65
2022-12-04T12:52:30.713Z,31.17
2022-12-04T12:55:46.952Z,30.33
2022-12-04T12:58:20.295Z,31.50
2022-12-04T13:00:58.441Z,31.00
2022-12-04T13:03:37.184Z,32.22
2022-12-04T13:06:14.563Z,30.20
2022-12-04T13:08:58.025Z,30.90
2022-12-04T13:11:27.832Z,30.38
2022-12-04T13:14:03.455Z,30.33
2022-12-04T13:16:40.044Z,29.70
2022-12-04T13:19:25.584Z,29.13
2022-12-04T13:22:13.730Z,30.27
2022-12-04T13:25:04.838Z,28.75
2022-12-04T13:27:34.169Z,27.98
2022-12-04T13:30:24.883Z,28.83
2022-12-04T13:33:23.846Z,29.42
2022-12-04T13:36:35.809Z,28.27
2022-12-04T13:39:21.120Z,28.30
2022-12-04T13:41:58.709Z,27.70
2022-12-04T13:44:27.376Z,27.35
2022-12-04T13:47:24.639Z,27.83
2022-12-04T13:49:52.480Z,28.38
2022-12-04T13:52:27.423Z,28.00
2022-12-04T13:54:59.615Z,29.15
2022-12-04T13:57:33.065Z,28.25
2022-12-04T14:00:35.055Z,27.77
2022-12-04T14:03:48.327Z,27.90
2022-12-04T14:06:21.149Z,27.77
2022-12-04T14:09:00.083Z,27.80
2022-12-04T14:13:57.636Z,25.90
2022-12-04T14:16:25.793Z,28.10
2022-12-04T14:18:58.091Z,28.90
2022-12-04T14:21:25.600Z,28.65
2022-12-04T14:23:53.584Z,28.30
2022-12-04T14:27:10.071Z,29.52
2022-12-04T14:29:36.749Z,31.63
2022-12-04T14:32:15.475Z,30.10
2022-12-04T14:34:42.798Z,30.73
2022-12-04T14:37:20.421Z,30.23
2022-12-04T14:39:49.899Z,31.17
2022-12-04T14:42:18.187Z,31.70
2022-12-04T14:44:46.453Z,30.45
2022-12-04T14:47:15.155Z,31.15
2022-12-04T14:50:07.604Z,31.83
2022-12-04T14:52:49.343Z,31.38
2022-12-04T14:55:37.294Z,31.75
2022-12-04T14:58:31.901Z,32.15
2022-12-04T15:01:03.713Z,33.63
2022-12-04T15:03:35.857Z,33.22
2022-12-04T15:06:11.963Z,33.08
2022-12-04T15:08:50.263Z,30.95
2022-12-04T15:11:38.775Z,31.40
2022-12-04T15:14:13.711Z,30.30
2022-12-04T15:16:41.387Z,31.63
2022-12-04T15:19:21.424Z,30.75
2022-12-04T15:21:49.097Z,31.52
2022-12-04T15:24:23.552Z,30.77
2022-12-04T15:26:53.257Z,31.08
2022-12-04T15:29:25.602Z,31.48
2022-12-04T15:31:57.150Z,31.08
2022-12-04T15:34:31.666Z,31.20
2022-12-04T15:37:07.283Z,31.45
2022-12-04T15:39:35.775Z,30.58
2022-12-04T15:42:14.696Z,30.23
2022-12-04T15:44:50.786Z,30.58
2022-12-04T15:47:21.291Z,30.73
2022-12-04T15:49:48.371Z,32.78
2022-12-04T15:52:21.326Z,30.98
2022-12-04T15:55:02.410Z,32.03
2022-12-04T15:57:33.626Z,29.13
2022-12-04T16:00:05.254Z,29.15
2022-12-04T16:02:35.351Z,30.45
2022-12-04T16:05:26.771Z,29.42
2022-12-04T16:08:20.243Z,30.20
2022-12-04T16:11:06.492Z,30.00
2022-12-04T16:13:39.028Z,30.73
2022-12-04T16:16:10.678Z,30.75
2022-12-04T16:18:40.743Z,29.27
2022-12-04T16:21:16.218Z,30.75
2022-12-04T16:23:43.177Z,30.08
2022-12-04T16:26:12.803Z,31.35
2022-12-04T16:28:39.494Z,29.30
2022-12-04T16:31:06.401Z,27.77
2022-12-04T16:33:33.048Z,28.33
2022-12-04T16:35:59.666Z,29.15
2022-12-04T16:38:26.578Z,29.40
2022-12-04T16:40:53.137Z,30.45
2022-12-04T16:43:19.822Z,28.83
2022-12-04T16:45:56.993Z,28.88
2022-12-04T16:48:23.549Z,28.10
2022-12-04T16:50:50.470Z,28.73
2022-12-04T16:53:19.716Z,33.58
2022-12-04T16:55:51.998Z,28.98
2022-12-04T16:58:20.138Z,29.55
2022-12-04T17:00:53.947Z,28.48
2022-12-04T17:03:28.127Z,27.00
2022-12-04T17:05:55.905Z,26.23
2022-12-04T17:08:23.205Z,25.70
2022-12-04T17:10:50.649Z,25.60
2022-12-04T17:13:18.544Z,25.55
2022-12-04T17:15:45.220Z,25.27
2022-12-04T17:18:15.174Z,26.35
2022-12-04T17:20:45.973Z,25.42
2022-12-04T17:23:13.145Z,25.20
2022-12-04T17:25:39.732Z,25.60
2022-12-04T17:28:06.564Z,25.10
2022-12-04T17:30:36.165Z,24.30
2022-12-04T17:33:05.305Z,25.05
2022-12-04T17:35:32.004Z,25.45
2022-12-04T17:38:05.436Z,25.23
2022-12-04T17:40:32.571Z,24.27
2022-12-04T17:42:59.270Z,22.38
2022-12-04T17:45:25.939Z,22.42
2022-12-04T17:47:52.771Z,22.98
2022-12-04T17:50:19.388Z,22.35
2022-12-04T17:52:45.933Z,22.20
2022-12-04T17:55:12.499Z,23.50
2022-12-04T17:57:39.130Z,22.42
2022-12-04T18:00:06.522Z,22.50
2022-12-04T18:02:41.414Z,21.75
2022-12-04T18:05:09.233Z,22.42
2022-12-04T18:07:35.977Z,21.83
2022-12-04T18:10:02.785Z,21.13
2022-12-04T18:12:29.382Z,21.15
2022-12-04T18:14:56.016Z,23.23
2022-12-04T18:17:22.833Z,22.55
2022-12-04T18:19:49.569Z,21.77
2022-12-04T18:22:16.156Z,23.17
2022-12-04T18:24:42.772Z,23.45
2022-12-04T18:27:09.583Z,23.92
2022-12-04T18:29:38.449Z,22.83
2022-12-04T18:32:05.371Z,22.35
2022-12-04T18:34:32.181Z,23.88
2022-12-04T18:36:58.810Z,22.17
2022-12-04T18:39:26.750Z,21.83
2022-12-04T18:41:57.009Z,22.27
2022-12-04T18:44:24.077Z,22.25
2022-12-04T18:46:50.696Z,22.08
2022-12-04T18:49:17.425Z,21.95
2022-12-04T18:51:49.646Z,22.42
2022-12-04T18:54:22.785Z,23.88
2022-12-04T18:56:50.451Z,23.60
2022-12-04T18:59:20.226Z,24.20
2022-12-04T19:01:47.216Z,21.95
2022-12-04T19:04:17.221Z,23.02
2022-12-04T19:06:46.491Z,23.25
2022-12-04T19:09:47.411Z,23.35
2022-12-04T19:12:12.405Z,24.67
2022-12-04T19:14:39.817Z,23.45
2022-12-04T19:17:06.687Z,23.30
2022-12-04T19:19:33.398Z,23.88
2022-12-04T19:22:01.124Z,21.65
2022-12-04T19:24:27.792Z,22.60
2022-12-04T19:26:54.629Z,23.20
2022-12-04T19:29:21.375Z,22.65
2022-12-04T19:31:48.108Z,23.20
2022-12-04T19:34:14.900Z,24.20
2022-12-04T19:36:42.593Z,22.45
2022-12-04T19:39:09.925Z,22.25
2022-12-04T19:41:38.533Z,21.83
2022-12-04T19:44:26.007Z,21.33
2022-12-04T19:46:53.020Z,22.83
2022-12-04T19:49:19.591Z,23.88
2022-12-04T19:51:47.750Z,23.27
2022-12-04T19:54:14.414Z,23.77
2022-12-04T19:56:42.780Z,22.45
2022-12-04T19:59:10.326Z,23.65
2022-12-04T20:01:37.057Z,23.10
2022-12-04T20:04:06.476Z,24.15
2022-12-04T20:06:42.457Z,23.45
2022-12-04T20:09:12.083Z,23.02
2022-12-04T20:11:39.632Z,23.02
2022-12-04T20:14:07.603Z,23.40
2022-12-04T20:16:35.704Z,24.00
2022-12-04T20:19:04.302Z,24.50
2022-12-04T20:21:32.372Z,25.10
2022-12-04T20:24:02.884Z,24.55
2022-12-04T20:26:34.436Z,23.67
2022-12-04T20:29:01.718Z,23.20
2022-12-04T20:31:31.410Z,23.35
2022-12-04T20:34:00.053Z,23.38
2022-12-04T20:36:28.248Z,23.58
2022-12-04T20:39:00.101Z,22.98
2022-12-04T20:41:28.836Z,23.25
2022-12-04T20:43:58.596Z,23.25
2022-12-04T20:46:26.530Z,23.48
2022-12-04T20:48:53.720Z,23.20
2022-12-04T20:51:40.704Z,22.88
2022-12-04T20:56:36.750Z,22.83
2022-12-04T20:59:10.112Z,23.33
2022-12-04T21:01:37.441Z,22.88
2022-12-04T21:04:05.587Z,24.40
2022-12-04T21:06:38.288Z,24.58
2022-12-04T21:09:11.932Z,24.48
2022-12-04T21:11:44.619Z,23.95
2022-12-04T21:14:38.192Z,24.10
2022-12-04T21:17:06.805Z,24.23
2022-12-04T21:19:38.716Z,24.83
2022-12-04T21:22:05.667Z,24.83
2022-12-04T21:24:41.038Z,26.70
2022-12-04T21:27:15.681Z,26.90
2022-12-04T21:29:45.720Z,26.55
2022-12-04T21:32:12.390Z,26.23
2022-12-04T21:34:38.982Z,26.25
2022-12-04T21:37:05.623Z,25.92
2022-12-04T21:39:32.652Z,27.30
2022-12-04T21:42:17.852Z,27.65
2022-12-04T21:44:44.485Z,25.83
2022-12-04T21:47:11.208Z,25.95
2022-12-04T21:49:37.928Z,26.73
2022-12-04T21:52:04.869Z,25.83
2022-12-04T21:54:31.738Z,26.42
2022-12-04T21:56:58.693Z,26.92
2022-12-04T21:59:26.112Z,26.98
2022-12-04T22:01:53.864Z,26.38
2022-12-04T22:04:21.164Z,24.90
2022-12-04T22:06:47.835Z,26.42
2022-12-04T22:09:14.583Z,25.45
2022-12-04T22:11:41.919Z,25.52
2022-12-04T22:14:10.035Z,25.08
2022-12-04T22:16:41.639Z,25.38
2022-12-04T22:19:09.364Z,24.30
2022-12-04T22:21:36.244Z,24.05
2022-12-04T22:24:04.216Z,25.30
2022-12-04T22:26:31.756Z,25.13
2022-12-04T22:28:59.155Z,25.42
2022-12-04T22:31:28.702Z,24.50
2022-12-04T22:33:57.585Z,23.23
2022-12-04T22:36:29.783Z,23.98
2022-12-04T22:39:09.316Z,24.15
2022-12-04T22:41:36.881Z,24.50
2022-12-04T22:44:04.151Z,25.70
2022-12-04T22:46:30.908Z,24.88
2022-12-04T22:48:58.569Z,24.65
2022-12-04T22:51:25.333Z,24.98
2022-12-04T22:53:54.647Z,24.75
2022-12-04T22:56:27.722Z,23.90
2022-12-04T22:58:54.949Z,24.10
2022-12-04T23:01:23.450Z,23.50
2022-12-04T23:03:51.235Z,23.33
2022-12-04T23:06:19.701Z,23.00
2022-12-04T23:08:47.203Z,24.67
2022-12-04T23:11:17.556Z,23.50
2022-12-04T23:14:06.527Z,22.50
2022-12-04T23:16:36.186Z,23.48
2022-12-04T23:19:04.580Z,22.90
2022-12-04T23:21:31.354Z,24.13
2022-12-04T23:23:58.164Z,23.63
2022-12-04T23:26:32.034Z,23.08
2022-12-04T23:29:01.684Z,22.08
2022-12-04T23:31:29.398Z,22.45
2022-12-04T23:33:59.219Z,22.83
2022-12-04T23:36:26.501Z,21.52
2022-12-04T23:38:55.946Z,21.70
2022-12-04T23:41:28.540Z,21.48
2022-12-04T23:44:03.862Z,21.33
2022-12-04T23:46:33.982Z,21.27
2022-12-04T23:49:03.315Z,20.50
2022-12-04T23:51:30.368Z,19.80
2022-12-04T23:53:57.185Z,20.48
2022-12-04T23:56:26.221Z,20.02
2022-12-04T23:58:55.695Z,20.17
